sensor_id;sensor_type;location;lat;lon;timestamp;P1;durP1;ratioP1;P2;durP2;ratioP2
20306;SDS011;10312;52.434;13.206;2022-09-12T00:01:28;3.83;;;1.80;;
20306;SDS011;10312;52.434;13.206;2022-09-12T00:03:56;5.90;;;1.77;;
20306;SDS011;10312;52.434;13.206;2022-09-12T00:06:26;2.25;;;2.00;;
20306;SDS011;10312;52.434;13.206;2022-09-12T00:08:58;2.33;;;1.90;;
20306;SDS011;10312;52.434;13.206;2022-09-12T00:11:27;2.20;;;1.70;;
20306;SDS011;10312;52.434;13.206;2022-09-12T00:13:57;2.05;;;1.60;;
20306;SDS011;10312;52.434;13.206;2022-09-12T00:16:27;2.55;;;1.70;;
20306;SDS011;10312;52.434;13.206;2022-09-12T00:18:55;2.15;;;1.50;;
20306;SDS011;10312;52.434;13.206;2022-09-12T00:21:21;3.03;;;1.88;;
20306;SDS011;10312;52.434;13.206;2022-09-12T00:23:49;4.50;;;1.90;;
20306;SDS011;10312;52.434;13.206;2022-09-12T00:26:16;3.85;;;1.92;;
20306;SDS011;10312;52.434;13.206;2022-09-12T00:28:43;3.45;;;1.90;;
20306;SDS011;10312;52.434;13.206;2022-09-12T00:31:13;4.75;;;1.60;;
20306;SDS011;10312;52.434;13.206;2022-09-12T00:33:41;2.47;;;1.60;;
20306;SDS011;10312;52.434;13.206;2022-09-12T00:36:16;5.47;;;1.92;;
20306;SDS011;10312;52.434;13.206;2022-09-12T00:38:47;2.88;;;1.70;;
20306;SDS011;10312;52.434;13.206;2022-09-12T00:41:20;4.00;;;1.60;;
20306;SDS011;10312;52.434;13.206;2022-09-12T00:43:50;2.25;;;1.77;;
20306;SDS011;10312;52.434;13.206;2022-09-12T00:46:26;2.83;;;1.83;;
20306;SDS011;10312;52.434;13.206;2022-09-12T00:51:30;2.55;;;1.50;;
20306;SDS011;10312;52.434;13.206;2022-09-12T00:53:59;3.10;;;1.70;;
20306;SDS011;10312;52.434;13.206;2022-09-12T00:56:28;4.28;;;1.83;;
20306;SDS011;10312;52.434;13.206;2022-09-12T00:59:00;2.53;;;1.70;;
20306;SDS011;10312;52.434;13.206;2022-09-12T01:01:30;2.72;;;1.60;;
20306;SDS011;10312;52.434;13.206;2022-09-12T01:03:58;3.35;;;1.63;;
20306;SDS011;10312;52.434;13.206;2022-09-12T01:06:36;3.55;;;1.90;;
20306;SDS011;10312;52.434;13.206;2022-09-12T01:09:05;2.25;;;1.48;;
20306;SDS011;10312;52.434;13.206;2022-09-12T01:11:34;2.15;;;1.75;;
20306;SDS011;10312;52.434;13.206;2022-09-12T01:14:04;2.28;;;1.67;;
20306;SDS011;10312;52.434;13.206;2022-09-12T01:16:31;2.78;;;1.90;;
20306;SDS011;10312;52.434;13.206;2022-09-12T01:29:49;2.15;;;1.77;;
20306;SDS011;10312;52.434;13.206;2022-09-12T01:40:56;3.03;;;1.77;;
20306;SDS011;10312;52.434;13.206;2022-09-12T01:46:11;2.47;;;1.88;;
20306;SDS011;10312;52.434;13.206;2022-09-12T01:48:48;3.65;;;2.13;;
20306;SDS011;10312;52.434;13.206;2022-09-12T01:54:01;2.58;;;1.95;;
20306;SDS011;10312;52.434;13.206;2022-09-12T01:56:33;4.13;;;1.90;;
20306;SDS011;10312;52.434;13.206;2022-09-12T01:59:07;3.90;;;1.98;;
20306;SDS011;10312;52.434;13.206;2022-09-12T02:01:57;2.22;;;1.70;;
20306;SDS011;10312;52.434;13.206;2022-09-12T02:04:28;3.30;;;1.70;;
20306;SDS011;10312;52.434;13.206;2022-09-12T02:07:01;2.13;;;1.70;;
20306;SDS011;10312;52.434;13.206;2022-09-12T02:12:12;2.63;;;1.73;;
20306;SDS011;10312;52.434;13.206;2022-09-12T02:14:43;2.13;;;1.70;;
20306;SDS011;10312;52.434;13.206;2022-09-12T02:17:14;2.30;;;2.00;;
20306;SDS011;10312;52.434;13.206;2022-09-12T02:19:44;2.58;;;1.80;;
20306;SDS011;10312;52.434;13.206;2022-09-12T02:22:17;2.28;;;1.80;;
20306;SDS011;10312;52.434;13.206;2022-09-12T02:24:47;2.20;;;1.80;;
20306;SDS011;10312;52.434;13.206;2022-09-12T02:29:45;2.88;;;1.65;;
20306;SDS011;10312;52.434;13.206;2022-09-12T02:35:28;2.42;;;2.00;;
20306;SDS011;10312;52.434;13.206;2022-09-12T02:38:09;2.65;;;1.92;;
20306;SDS011;10312;52.434;13.206;2022-09-12T02:40:40;2.80;;;2.00;;
20306;SDS011;10312;52.434;13.206;2022-09-12T02:43:08;1.80;;;1.55;;
20306;SDS011;10312;52.434;13.206;2022-09-12T02:45:34;3.00;;;1.90;;
20306;SDS011;10312;52.434;13.206;2022-09-12T02:48:09;2.50;;;1.88;;
20306;SDS011;10312;52.434;13.206;2022-09-12T02:50:39;2.70;;;2.15;;
20306;SDS011;10312;52.434;13.206;2022-09-12T02:53:06;2.80;;;1.73;;
20306;SDS011;10312;52.434;13.206;2022-09-12T02:55:34;2.70;;;1.80;;
20306;SDS011;10312;52.434;13.206;2022-09-12T02:58:02;3.45;;;2.05;;
20306;SDS011;10312;52.434;13.206;2022-09-12T03:00:33;5.05;;;2.03;;
20306;SDS011;10312;52.434;13.206;2022-09-12T03:09:15;2.47;;;2.13;;
20306;SDS011;10312;52.434;13.206;2022-09-12T03:17:38;2.78;;;2.08;;
20306;SDS011;10312;52.434;13.206;2022-09-12T03:20:12;3.20;;;2.10;;
20306;SDS011;10312;52.434;13.206;2022-09-12T03:22:48;3.97;;;1.83;;
20306;SDS011;10312;52.434;13.206;2022-09-12T03:27:52;2.95;;;2.30;;
20306;SDS011;10312;52.434;13.206;2022-09-12T03:30:22;3.25;;;2.13;;
20306;SDS011;10312;52.434;13.206;2022-09-12T03:32:51;4.00;;;3.03;;
20306;SDS011;10312;52.434;13.206;2022-09-12T03:35:19;3.20;;;2.30;;
20306;SDS011;10312;52.434;13.206;2022-09-12T03:37:49;2.90;;;2.35;;
20306;SDS011;10312;52.434;13.206;2022-09-12T03:40:16;3.75;;;2.40;;
20306;SDS011;10312;52.434;13.206;2022-09-12T03:42:43;3.20;;;2.47;;
20306;SDS011;10312;52.434;13.206;2022-09-12T03:45:10;5.60;;;2.17;;
20306;SDS011;10312;52.434;13.206;2022-09-12T03:47:37;3.00;;;2.20;;
20306;SDS011;10312;52.434;13.206;2022-09-12T03:50:05;2.97;;;2.00;;
20306;SDS011;10312;52.434;13.206;2022-09-12T03:52:32;2.67;;;2.10;;
20306;SDS011;10312;52.434;13.206;2022-09-12T03:54:59;3.70;;;2.50;;
20306;SDS011;10312;52.434;13.206;2022-09-12T03:57:25;3.00;;;2.28;;
20306;SDS011;10312;52.434;13.206;2022-09-12T03:59:52;2.92;;;2.35;;
20306;SDS011;10312;52.434;13.206;2022-09-12T04:02:19;2.38;;;1.95;;
20306;SDS011;10312;52.434;13.206;2022-09-12T04:04:46;4.82;;;2.50;;
20306;SDS011;10312;52.434;13.206;2022-09-12T04:07:14;2.78;;;2.38;;
20306;SDS011;10312;52.434;13.206;2022-09-12T04:09:42;4.28;;;2.70;;
20306;SDS011;10312;52.434;13.206;2022-09-12T04:12:08;3.60;;;2.40;;
20306;SDS011;10312;52.434;13.206;2022-09-12T04:14:35;4.68;;;2.33;;
20306;SDS011;10312;52.434;13.206;2022-09-12T04:17:02;4.03;;;2.28;;
20306;SDS011;10312;52.434;13.206;2022-09-12T04:19:29;2.92;;;2.45;;
20306;SDS011;10312;52.434;13.206;2022-09-12T04:21:56;2.88;;;2.30;;
20306;SDS011;10312;52.434;13.206;2022-09-12T04:24:22;4.82;;;2.50;;
20306;SDS011;10312;52.434;13.206;2022-09-12T04:26:49;5.32;;;2.33;;
20306;SDS011;10312;52.434;13.206;2022-09-12T04:29:16;2.78;;;2.20;;
20306;SDS011;10312;52.434;13.206;2022-09-12T04:31:43;5.45;;;2.78;;
20306;SDS011;10312;52.434;13.206;2022-09-12T04:34:09;3.03;;;2.40;;
20306;SDS011;10312;52.434;13.206;2022-09-12T04:36:36;5.45;;;2.30;;
20306;SDS011;10312;52.434;13.206;2022-09-12T04:39:03;4.07;;;2.88;;
20306;SDS011;10312;52.434;13.206;2022-09-12T04:41:31;3.78;;;2.90;;
20306;SDS011;10312;52.434;13.206;2022-09-12T04:44:00;4.32;;;2.67;;
20306;SDS011;10312;52.434;13.206;2022-09-12T04:46:32;3.10;;;2.50;;
20306;SDS011;10312;52.434;13.206;2022-09-12T04:49:00;4.05;;;2.90;;
20306;SDS011;10312;52.434;13.206;2022-09-12T04:51:29;4.63;;;3.30;;
20306;SDS011;10312;52.434;13.206;2022-09-12T04:54:00;4.32;;;2.92;;
20306;SDS011;10312;52.434;13.206;2022-09-12T04:56:28;5.35;;;3.45;;
20306;SDS011;10312;52.434;13.206;2022-09-12T04:58:56;7.43;;;3.47;;
20306;SDS011;10312;52.434;13.206;2022-09-12T05:01:23;4.55;;;3.45;;
20306;SDS011;10312;52.434;13.206;2022-09-12T05:03:50;4.65;;;3.67;;
20306;SDS011;10312;52.434;13.206;2022-09-12T05:06:19;4.45;;;3.40;;
20306;SDS011;10312;52.434;13.206;2022-09-12T05:08:47;4.57;;;3.63;;
20306;SDS011;10312;52.434;13.206;2022-09-12T05:11:14;5.75;;;3.25;;
20306;SDS011;10312;52.434;13.206;2022-09-12T05:13:52;4.55;;;3.47;;
20306;SDS011;10312;52.434;13.206;2022-09-12T05:16:19;4.53;;;3.47;;
20306;SDS011;10312;52.434;13.206;2022-09-12T05:18:46;4.20;;;3.50;;
20306;SDS011;10312;52.434;13.206;2022-09-12T05:21:15;6.65;;;3.55;;
20306;SDS011;10312;52.434;13.206;2022-09-12T05:23:43;4.53;;;3.60;;
20306;SDS011;10312;52.434;13.206;2022-09-12T05:26:11;5.72;;;3.67;;
20306;SDS011;10312;52.434;13.206;2022-09-12T05:28:41;5.18;;;4.20;;
20306;SDS011;10312;52.434;13.206;2022-09-12T05:31:10;4.13;;;3.25;;
20306;SDS011;10312;52.434;13.206;2022-09-12T05:33:39;4.95;;;3.95;;
20306;SDS011;10312;52.434;13.206;2022-09-12T05:36:09;6.10;;;4.30;;
20306;SDS011;10312;52.434;13.206;2022-09-12T05:38:37;6.80;;;3.70;;
20306;SDS011;10312;52.434;13.206;2022-09-12T05:41:11;6.38;;;3.92;;
20306;SDS011;10312;52.434;13.206;2022-09-12T05:43:45;6.43;;;3.85;;
20306;SDS011;10312;52.434;13.206;2022-09-12T05:46:16;5.30;;;4.05;;
20306;SDS011;10312;52.434;13.206;2022-09-12T05:48:45;7.25;;;4.40;;
20306;SDS011;10312;52.434;13.206;2022-09-12T05:51:14;5.82;;;4.72;;
20306;SDS011;10312;52.434;13.206;2022-09-12T05:53:49;5.43;;;4.45;;
20306;SDS011;10312;52.434;13.206;2022-09-12T05:56:19;8.02;;;4.72;;
20306;SDS011;10312;52.434;13.206;2022-09-12T05:59:31;5.80;;;4.70;;
20306;SDS011;10312;52.434;13.206;2022-09-12T06:01:39;5.63;;;4.32;;
20306;SDS011;10312;52.434;13.206;2022-09-12T06:04:06;7.38;;;4.78;;
20306;SDS011;10312;52.434;13.206;2022-09-12T06:06:38;6.47;;;4.80;;
20306;SDS011;10312;52.434;13.206;2022-09-12T06:09:07;6.70;;;5.03;;
20306;SDS011;10312;52.434;13.206;2022-09-12T06:11:34;8.10;;;4.97;;
20306;SDS011;10312;52.434;13.206;2022-09-12T06:14:02;7.53;;;5.40;;
20306;SDS011;10312;52.434;13.206;2022-09-12T06:16:30;6.53;;;5.43;;
20306;SDS011;10312;52.434;13.206;2022-09-12T06:19:20;8.05;;;5.32;;
20306;SDS011;10312;52.434;13.206;2022-09-12T06:21:46;7.07;;;5.70;;
20306;SDS011;10312;52.434;13.206;2022-09-12T06:24:15;7.75;;;6.57;;
20306;SDS011;10312;52.434;13.206;2022-09-12T06:26:43;7.20;;;5.68;;
20306;SDS011;10312;52.434;13.206;2022-09-12T06:29:10;7.15;;;5.35;;
20306;SDS011;10312;52.434;13.206;2022-09-12T06:31:37;6.55;;;5.10;;
20306;SDS011;10312;52.434;13.206;2022-09-12T06:34:07;6.40;;;5.25;;
20306;SDS011;10312;52.434;13.206;2022-09-12T06:36:37;6.13;;;5.07;;
20306;SDS011;10312;52.434;13.206;2022-09-12T06:39:06;6.75;;;5.10;;
20306;SDS011;10312;52.434;13.206;2022-09-12T06:41:36;7.68;;;5.25;;
20306;SDS011;10312;52.434;13.206;2022-09-12T06:44:13;7.63;;;4.93;;
20306;SDS011;10312;52.434;13.206;2022-09-12T06:46:41;6.05;;;5.00;;
20306;SDS011;10312;52.434;13.206;2022-09-12T06:49:09;6.30;;;4.63;;
20306;SDS011;10312;52.434;13.206;2022-09-12T06:51:37;8.88;;;5.60;;
20306;SDS011;10312;52.434;13.206;2022-09-12T06:54:04;7.68;;;4.93;;
20306;SDS011;10312;52.434;13.206;2022-09-12T06:56:31;6.78;;;4.70;;
20306;SDS011;10312;52.434;13.206;2022-09-12T06:58:58;7.82;;;4.68;;
20306;SDS011;10312;52.434;13.206;2022-09-12T07:01:29;7.15;;;4.70;;
20306;SDS011;10312;52.434;13.206;2022-09-12T07:03:58;6.05;;;4.32;;
20306;SDS011;10312;52.434;13.206;2022-09-12T07:06:27;7.40;;;4.50;;
20306;SDS011;10312;52.434;13.206;2022-09-12T07:08:58;6.78;;;4.78;;
20306;SDS011;10312;52.434;13.206;2022-09-12T07:11:26;6.10;;;4.28;;
20306;SDS011;10312;52.434;13.206;2022-09-12T07:13:55;6.30;;;4.47;;
20306;SDS011;10312;52.434;13.206;2022-09-12T07:16:22;7.47;;;4.05;;
20306;SDS011;10312;52.434;13.206;2022-09-12T07:18:53;5.30;;;4.43;;
20306;SDS011;10312;52.434;13.206;2022-09-12T07:21:21;5.60;;;4.10;;
20306;SDS011;10312;52.434;13.206;2022-09-12T07:23:48;6.85;;;4.28;;
20306;SDS011;10312;52.434;13.206;2022-09-12T07:26:17;7.40;;;3.67;;
20306;SDS011;10312;52.434;13.206;2022-09-12T07:28:44;4.57;;;3.55;;
20306;SDS011;10312;52.434;13.206;2022-09-12T07:31:15;16.17;;;3.22;;
20306;SDS011;10312;52.434;13.206;2022-09-12T07:33:43;2.75;;;2.30;;
20306;SDS011;10312;52.434;13.206;2022-09-12T07:36:11;3.85;;;2.50;;
20306;SDS011;10312;52.434;13.206;2022-09-12T07:38:39;5.95;;;2.70;;
20306;SDS011;10312;52.434;13.206;2022-09-12T07:41:13;3.30;;;2.25;;
20306;SDS011;10312;52.434;13.206;2022-09-12T07:43:40;2.95;;;1.80;;
20306;SDS011;10312;52.434;13.206;2022-09-12T07:46:07;3.40;;;1.92;;
20306;SDS011;10312;52.434;13.206;2022-09-12T07:48:35;5.72;;;2.25;;
20306;SDS011;10312;52.434;13.206;2022-09-12T07:51:04;4.93;;;2.00;;
20306;SDS011;10312;52.434;13.206;2022-09-12T07:53:36;3.40;;;1.40;;
20306;SDS011;10312;52.434;13.206;2022-09-12T07:56:05;2.20;;;1.73;;
20306;SDS011;10312;52.434;13.206;2022-09-12T07:58:32;1.50;;;1.25;;
20306;SDS011;10312;52.434;13.206;2022-09-12T08:01:01;2.53;;;1.30;;
20306;SDS011;10312;52.434;13.206;2022-09-12T08:03:29;5.00;;;1.75;;
20306;SDS011;10312;52.434;13.206;2022-09-12T08:06:30;2.45;;;1.30;;
20306;SDS011;10312;52.434;13.206;2022-09-12T08:08:50;3.05;;;1.30;;
20306;SDS011;10312;52.434;13.206;2022-09-12T08:11:21;3.15;;;1.13;;
20306;SDS011;10312;52.434;13.206;2022-09-12T08:13:49;1.75;;;1.20;;
20306;SDS011;10312;52.434;13.206;2022-09-12T08:16:22;2.75;;;1.13;;
20306;SDS011;10312;52.434;13.206;2022-09-12T08:18:52;5.60;;;1.27;;
20306;SDS011;10312;52.434;13.206;2022-09-12T08:21:20;4.00;;;1.48;;
20306;SDS011;10312;52.434;13.206;2022-09-12T08:24:01;4.18;;;1.48;;
20306;SDS011;10312;52.434;13.206;2022-09-12T08:26:29;1.65;;;1.08;;
20306;SDS011;10312;52.434;13.206;2022-09-12T08:28:57;1.75;;;1.08;;
20306;SDS011;10312;52.434;13.206;2022-09-12T08:31:25;2.17;;;1.20;;
20306;SDS011;10312;52.434;13.206;2022-09-12T08:33:55;2.53;;;1.17;;
20306;SDS011;10312;52.434;13.206;2022-09-12T08:36:23;1.55;;;1.00;;
20306;SDS011;10312;52.434;13.206;2022-09-12T08:38:58;3.80;;;0.77;;
20306;SDS011;10312;52.434;13.206;2022-09-12T08:41:31;2.65;;;0.90;;
20306;SDS011;10312;52.434;13.206;2022-09-12T08:50:03;2.17;;;1.05;;
20306;SDS011;10312;52.434;13.206;2022-09-12T08:55:04;1.83;;;0.88;;
20306;SDS011;10312;52.434;13.206;2022-09-12T08:57:32;2.50;;;1.00;;
20306;SDS011;10312;52.434;13.206;2022-09-12T08:59:59;1.15;;;0.52;;
20306;SDS011;10312;52.434;13.206;2022-09-12T09:02:38;1.13;;;0.80;;
20306;SDS011;10312;52.434;13.206;2022-09-12T09:10:55;4.00;;;0.80;;
20306;SDS011;10312;52.434;13.206;2022-09-12T09:13:30;1.52;;;0.70;;
20306;SDS011;10312;52.434;13.206;2022-09-12T09:19:03;1.42;;;0.60;;
20306;SDS011;10312;52.434;13.206;2022-09-12T09:21:34;1.83;;;0.65;;
20306;SDS011;10312;52.434;13.206;2022-09-12T09:24:04;2.03;;;1.00;;
20306;SDS011;10312;52.434;13.206;2022-09-12T09:26:37;1.17;;;0.77;;
20306;SDS011;10312;52.434;13.206;2022-09-12T09:29:20;2.17;;;0.80;;
20306;SDS011;10312;52.434;13.206;2022-09-12T09:31:50;1.92;;;0.60;;
20306;SDS011;10312;52.434;13.206;2022-09-12T09:34:19;1.33;;;0.70;;
20306;SDS011;10312;52.434;13.206;2022-09-12T09:36:48;0.90;;;0.70;;
20306;SDS011;10312;52.434;13.206;2022-09-12T09:42:25;2.92;;;0.75;;
20306;SDS011;10312;52.434;13.206;2022-09-12T09:44:54;4.47;;;1.00;;
20306;SDS011;10312;52.434;13.206;2022-09-12T09:47:23;1.42;;;0.80;;
20306;SDS011;10312;52.434;13.206;2022-09-12T09:49:50;2.03;;;0.93;;
20306;SDS011;10312;52.434;13.206;2022-09-12T09:52:19;4.10;;;1.10;;
20306;SDS011;10312;52.434;13.206;2022-09-12T09:54:51;1.05;;;0.80;;
20306;SDS011;10312;52.434;13.206;2022-09-12T10:05:50;1.48;;;0.85;;
20306;SDS011;10312;52.434;13.206;2022-09-12T10:10:56;1.75;;;0.80;;
20306;SDS011;10312;52.434;13.206;2022-09-12T10:16:20;2.72;;;0.70;;
20306;SDS011;10312;52.434;13.206;2022-09-12T10:18:50;1.23;;;0.70;;
20306;SDS011;10312;52.434;13.206;2022-09-12T10:23:47;2.10;;;0.65;;
20306;SDS011;10312;52.434;13.206;2022-09-12T10:26:18;1.98;;;0.75;;
20306;SDS011;10312;52.434;13.206;2022-09-12T10:28:48;3.67;;;1.00;;
20306;SDS011;10312;52.434;13.206;2022-09-12T10:31:22;2.97;;;0.80;;
20306;SDS011;10312;52.434;13.206;2022-09-12T10:33:56;1.70;;;0.85;;
20306;SDS011;10312;52.434;13.206;2022-09-12T10:36:24;1.70;;;0.70;;
20306;SDS011;10312;52.434;13.206;2022-09-12T10:38:54;1.25;;;0.70;;
20306;SDS011;10312;52.434;13.206;2022-09-12T10:41:22;0.90;;;0.55;;
20306;SDS011;10312;52.434;13.206;2022-09-12T10:43:50;1.60;;;0.60;;
20306;SDS011;10312;52.434;13.206;2022-09-12T10:48:44;1.63;;;0.50;;
20306;SDS011;10312;52.434;13.206;2022-09-12T10:53:51;0.98;;;0.50;;
20306;SDS011;10312;52.434;13.206;2022-09-12T10:56:20;3.28;;;0.60;;
20306;SDS011;10312;52.434;13.206;2022-09-12T11:09:56;0.90;;;0.50;;
20306;SDS011;10312;52.434;13.206;2022-09-12T11:17:40;1.27;;;0.70;;
20306;SDS011;10312;52.434;13.206;2022-09-12T11:24:09;1.08;;;0.55;;
20306;SDS011;10312;52.434;13.206;2022-09-12T11:29:20;1.60;;;0.70;;
20306;SDS011;10312;52.434;13.206;2022-09-12T11:45:46;2.55;;;0.77;;
20306;SDS011;10312;52.434;13.206;2022-09-12T11:48:16;1.23;;;0.52;;
20306;SDS011;10312;52.434;13.206;2022-09-12T11:50:50;3.83;;;0.63;;
20306;SDS011;10312;52.434;13.206;2022-09-12T11:53:18;2.65;;;0.70;;
20306;SDS011;10312;52.434;13.206;2022-09-12T11:55:51;1.60;;;0.57;;
20306;SDS011;10312;52.434;13.206;2022-09-12T11:58:24;1.13;;;0.50;;
20306;SDS011;10312;52.434;13.206;2022-09-12T12:00:53;5.55;;;1.15;;
20306;SDS011;10312;52.434;13.206;2022-09-12T12:03:39;1.90;;;0.75;;
20306;SDS011;10312;52.434;13.206;2022-09-12T12:06:11;1.75;;;0.68;;
20306;SDS011;10312;52.434;13.206;2022-09-12T12:08:47;0.77;;;0.50;;
20306;SDS011;10312;52.434;13.206;2022-09-12T12:11:29;1.00;;;0.50;;
20306;SDS011;10312;52.434;13.206;2022-09-12T12:14:06;1.35;;;0.70;;
20306;SDS011;10312;52.434;13.206;2022-09-12T12:16:43;3.15;;;0.70;;
20306;SDS011;10312;52.434;13.206;2022-09-12T12:21:50;3.00;;;0.55;;
20306;SDS011;10312;52.434;13.206;2022-09-12T12:26:55;0.70;;;0.60;;
20306;SDS011;10312;52.434;13.206;2022-09-12T12:34:36;1.73;;;0.60;;
20306;SDS011;10312;52.434;13.206;2022-09-12T12:52:31;0.88;;;0.57;;
20306;SDS011;10312;52.434;13.206;2022-09-12T12:55:12;1.77;;;0.60;;
20306;SDS011;10312;52.434;13.206;2022-09-12T12:57:50;1.38;;;0.50;;
20306;SDS011;10312;52.434;13.206;2022-09-12T13:05:30;1.77;;;0.60;;
20306;SDS011;10312;52.434;13.206;2022-09-12T13:08:25;0.98;;;0.50;;
20306;SDS011;10312;52.434;13.206;2022-09-12T13:10:56;0.85;;;0.57;;
20306;SDS011;10312;52.434;13.206;2022-09-12T13:15:58;0.73;;;0.52;;
20306;SDS011;10312;52.434;13.206;2022-09-12T13:21:09;1.80;;;0.57;;
20306;SDS011;10312;52.434;13.206;2022-09-12T13:23:38;0.98;;;0.65;;
20306;SDS011;10312;52.434;13.206;2022-09-12T13:26:10;0.95;;;0.60;;
20306;SDS011;10312;52.434;13.206;2022-09-12T13:28:39;2.90;;;0.80;;
20306;SDS011;10312;52.434;13.206;2022-09-12T13:31:22;2.03;;;0.70;;
20306;SDS011;10312;52.434;13.206;2022-09-12T13:33:54;1.60;;;0.60;;
20306;SDS011;10312;52.434;13.206;2022-09-12T13:39:28;1.70;;;0.77;;
20306;SDS011;10312;52.434;13.206;2022-09-12T13:44:47;0.82;;;0.60;;
20306;SDS011;10312;52.434;13.206;2022-09-12T13:47:24;1.95;;;0.60;;
20306;SDS011;10312;52.434;13.206;2022-09-12T13:49:52;1.20;;;0.60;;
20306;SDS011;10312;52.434;13.206;2022-09-12T13:52:20;1.45;;;0.60;;
20306;SDS011;10312;52.434;13.206;2022-09-12T13:54:51;1.23;;;0.50;;
20306;SDS011;10312;52.434;13.206;2022-09-12T13:57:38;0.73;;;0.60;;
20306;SDS011;10312;52.434;13.206;2022-09-12T14:00:11;1.40;;;0.57;;
20306;SDS011;10312;52.434;13.206;2022-09-12T14:02:38;1.08;;;0.60;;
20306;SDS011;10312;52.434;13.206;2022-09-12T14:05:18;2.28;;;0.60;;
20306;SDS011;10312;52.434;13.206;2022-09-12T14:10:20;1.00;;;0.60;;
20306;SDS011;10312;52.434;13.206;2022-09-12T14:12:57;1.58;;;0.80;;
20306;SDS011;10312;52.434;13.206;2022-09-12T14:15:29;2.63;;;1.13;;
20306;SDS011;10312;52.434;13.206;2022-09-12T14:17:59;1.17;;;0.63;;
20306;SDS011;10312;52.434;13.206;2022-09-12T14:20:31;1.20;;;0.60;;
20306;SDS011;10312;52.434;13.206;2022-09-12T14:23:02;2.83;;;0.70;;
20306;SDS011;10312;52.434;13.206;2022-09-12T14:25:49;2.63;;;0.70;;
20306;SDS011;10312;52.434;13.206;2022-09-12T14:28:17;2.58;;;0.80;;
20306;SDS011;10312;52.434;13.206;2022-09-12T14:30:59;1.08;;;0.60;;
20306;SDS011;10312;52.434;13.206;2022-09-12T14:33:28;3.15;;;0.80;;
20306;SDS011;10312;52.434;13.206;2022-09-12T14:36:07;3.25;;;0.80;;
20306;SDS011;10312;52.434;13.206;2022-09-12T14:38:56;1.25;;;0.82;;
20306;SDS011;10312;52.434;13.206;2022-09-12T14:41:27;1.30;;;0.60;;
20306;SDS011;10312;52.434;13.206;2022-09-12T14:43:57;2.10;;;1.00;;
20306;SDS011;10312;52.434;13.206;2022-09-12T14:46:27;1.92;;;0.70;;
20306;SDS011;10312;52.434;13.206;2022-09-12T14:49:19;1.77;;;0.90;;
20306;SDS011;10312;52.434;13.206;2022-09-12T14:57:03;1.27;;;0.60;;
20306;SDS011;10312;52.434;13.206;2022-09-12T15:07:23;2.72;;;0.70;;
20306;SDS011;10312;52.434;13.206;2022-09-12T15:09:56;1.63;;;0.90;;
20306;SDS011;10312;52.434;13.206;2022-09-12T15:12:24;0.63;;;0.57;;
20306;SDS011;10312;52.434;13.206;2022-09-12T15:14:51;1.45;;;0.60;;
20306;SDS011;10312;52.434;13.206;2022-09-12T15:17:18;1.17;;;0.75;;
20306;SDS011;10312;52.434;13.206;2022-09-12T15:19:44;1.38;;;0.70;;
20306;SDS011;10312;52.434;13.206;2022-09-12T15:22:11;2.40;;;0.82;;
20306;SDS011;10312;52.434;13.206;2022-09-12T15:24:38;1.63;;;0.90;;
20306;SDS011;10312;52.434;13.206;2022-09-12T15:27:11;3.20;;;0.60;;
20306;SDS011;10312;52.434;13.206;2022-09-12T15:29:38;1.73;;;0.80;;
20306;SDS011;10312;52.434;13.206;2022-09-12T15:32:05;2.05;;;0.90;;
20306;SDS011;10312;52.434;13.206;2022-09-12T15:34:32;3.00;;;0.70;;
20306;SDS011;10312;52.434;13.206;2022-09-12T15:36:59;2.65;;;0.82;;
20306;SDS011;10312;52.434;13.206;2022-09-12T15:39:26;6.47;;;0.90;;
20306;SDS011;10312;52.434;13.206;2022-09-12T15:41:53;1.55;;;0.70;;
20306;SDS011;10312;52.434;13.206;2022-09-12T15:44:28;1.17;;;0.75;;
20306;SDS011;10312;52.434;13.206;2022-09-12T15:46:56;1.10;;;0.70;;
20306;SDS011;10312;52.434;13.206;2022-09-12T15:49:23;1.88;;;0.75;;
20306;SDS011;10312;52.434;13.206;2022-09-12T15:51:50;1.05;;;0.80;;
20306;SDS011;10312;52.434;13.206;2022-09-12T15:54:16;1.23;;;0.80;;
20306;SDS011;10312;52.434;13.206;2022-09-12T15:56:43;3.55;;;1.02;;
20306;SDS011;10312;52.434;13.206;2022-09-12T15:59:10;0.68;;;0.65;;
20306;SDS011;10312;52.434;13.206;2022-09-12T16:01:38;6.22;;;1.67;;
20306;SDS011;10312;52.434;13.206;2022-09-12T16:04:16;0.90;;;0.60;;
20306;SDS011;10312;52.434;13.206;2022-09-12T16:06:45;0.90;;;0.60;;
20306;SDS011;10312;52.434;13.206;2022-09-12T16:09:12;1.27;;;0.63;;
20306;SDS011;10312;52.434;13.206;2022-09-12T16:11:42;1.30;;;0.57;;
20306;SDS011;10312;52.434;13.206;2022-09-12T16:14:12;1.73;;;0.68;;
20306;SDS011;10312;52.434;13.206;2022-09-12T16:16:40;1.92;;;0.88;;
20306;SDS011;10312;52.434;13.206;2022-09-12T16:19:07;33.70;;;3.72;;
20306;SDS011;10312;52.434;13.206;2022-09-12T16:21:35;1.63;;;0.70;;
20306;SDS011;10312;52.434;13.206;2022-09-12T16:24:02;1.92;;;0.80;;
20306;SDS011;10312;52.434;13.206;2022-09-12T16:26:29;1.35;;;0.80;;
20306;SDS011;10312;52.434;13.206;2022-09-12T16:28:57;1.35;;;0.90;;
20306;SDS011;10312;52.434;13.206;2022-09-12T16:31:24;1.60;;;0.90;;
20306;SDS011;10312;52.434;13.206;2022-09-12T16:33:52;2.75;;;0.63;;
20306;SDS011;10312;52.434;13.206;2022-09-12T16:36:19;7.15;;;0.95;;
20306;SDS011;10312;52.434;13.206;2022-09-12T16:38:50;1.63;;;0.98;;
20306;SDS011;10312;52.434;13.206;2022-09-12T16:41:22;1.55;;;1.10;;
20306;SDS011;10312;52.434;13.206;2022-09-12T16:43:52;4.93;;;1.00;;
20306;SDS011;10312;52.434;13.206;2022-09-12T16:46:23;1.40;;;0.85;;
20306;SDS011;10312;52.434;13.206;2022-09-12T16:48:52;3.08;;;1.35;;
20306;SDS011;10312;52.434;13.206;2022-09-12T16:51:24;1.95;;;1.00;;
20306;SDS011;10312;52.434;13.206;2022-09-12T16:53:53;1.30;;;0.77;;
20306;SDS011;10312;52.434;13.206;2022-09-12T16:56:20;2.03;;;0.95;;
20306;SDS011;10312;52.434;13.206;2022-09-12T16:58:47;3.67;;;0.93;;
20306;SDS011;10312;52.434;13.206;2022-09-12T17:01:15;1.42;;;0.95;;
20306;SDS011;10312;52.434;13.206;2022-09-12T17:03:46;3.53;;;1.10;;
20306;SDS011;10312;52.434;13.206;2022-09-12T17:06:16;3.47;;;2.30;;
20306;SDS011;10312;52.434;13.206;2022-09-12T17:08:44;5.07;;;3.40;;
20306;SDS011;10312;52.434;13.206;2022-09-12T17:11:17;6.65;;;3.80;;
20306;SDS011;10312;52.434;13.206;2022-09-12T17:13:45;8.60;;;5.70;;
20306;SDS011;10312;52.434;13.206;2022-09-12T17:16:30;9.55;;;5.85;;
20306;SDS011;10312;52.434;13.206;2022-09-12T17:19:01;12.80;;;6.20;;
20306;SDS011;10312;52.434;13.206;2022-09-12T17:21:28;7.57;;;5.28;;
20306;SDS011;10312;52.434;13.206;2022-09-12T17:23:55;8.38;;;4.88;;
20306;SDS011;10312;52.434;13.206;2022-09-12T17:26:23;6.78;;;4.28;;
20306;SDS011;10312;52.434;13.206;2022-09-12T17:28:50;6.95;;;4.40;;
20306;SDS011;10312;52.434;13.206;2022-09-12T17:31:16;6.60;;;4.22;;
20306;SDS011;10312;52.434;13.206;2022-09-12T17:33:43;8.13;;;5.35;;
20306;SDS011;10312;52.434;13.206;2022-09-12T17:36:11;11.35;;;6.60;;
20306;SDS011;10312;52.434;13.206;2022-09-12T17:38:42;8.68;;;5.88;;
20306;SDS011;10312;52.434;13.206;2022-09-12T17:41:14;12.90;;;7.00;;
20306;SDS011;10312;52.434;13.206;2022-09-12T17:43:44;10.43;;;6.47;;
20306;SDS011;10312;52.434;13.206;2022-09-12T17:46:11;9.48;;;6.10;;
20306;SDS011;10312;52.434;13.206;2022-09-12T17:48:39;9.35;;;6.57;;
20306;SDS011;10312;52.434;13.206;2022-09-12T17:51:10;11.18;;;6.78;;
20306;SDS011;10312;52.434;13.206;2022-09-12T17:53:39;11.02;;;6.20;;
20306;SDS011;10312;52.434;13.206;2022-09-12T17:56:06;9.73;;;6.25;;
20306;SDS011;10312;52.434;13.206;2022-09-12T17:58:34;9.07;;;5.97;;